Akutan, Alaska
Current Conditions -  °F | °C
As of 7:55 PM on Wednesday 22 Oct 2014 (Local Time) from PAUT Reporting Station
Broken Clouds Broken Clouds  
Wind Chill: 30°   Ceiling: 3500
Heat Index: 40°   Visibility: 10mi
Dew Point: 35°   Wind: 25mph
Humidity: 82%   Direction: 310°NW
Pressure: 30.07"   Gusts: 32mph
Location:  54.14°N, 165.77°W
Report Text: PAUT 230355Z AUTO 31022G28KT 10SM SCT024 SCT028 BKN035 05/02 A3007 RMK AO2 T00460017
Loading
Personal Weather Stations






























Interactive Weather Map
Tropical Storm Tracking
New forecast layout! Learn more

10-Day Weather Forecast

Advertisements
Track Severe Weather on mobile